sensor_id;sensor_type;location;lat;lon;timestamp;P1;durP1;ratioP1;P2;durP2;ratioP2
65315;SDS011;51920;53.952;10.292;2023-03-14T00:01:25;7.80;;;2.70;;
65315;SDS011;51920;53.952;10.292;2023-03-14T00:03:52;6.93;;;2.40;;
65315;SDS011;51920;53.952;10.292;2023-03-14T00:06:19;8.13;;;3.00;;
65315;SDS011;51920;53.952;10.292;2023-03-14T00:08:46;9.05;;;3.05;;
65315;SDS011;51920;53.952;10.292;2023-03-14T00:11:15;9.55;;;2.80;;
65315;SDS011;51920;53.952;10.292;2023-03-14T00:13:46;9.02;;;2.90;;
65315;SDS011;51920;53.952;10.292;2023-03-14T00:16:16;5.57;;;2.50;;
65315;SDS011;51920;53.952;10.292;2023-03-14T00:18:43;6.57;;;2.58;;
65315;SDS011;51920;53.952;10.292;2023-03-14T00:21:10;11.75;;;2.70;;
65315;SDS011;51920;53.952;10.292;2023-03-14T00:23:38;13.70;;;2.83;;
65315;SDS011;51920;53.952;10.292;2023-03-14T00:26:08;12.15;;;3.03;;
65315;SDS011;51920;53.952;10.292;2023-03-14T00:28:39;6.70;;;2.37;;
65315;SDS011;51920;53.952;10.292;2023-03-14T00:31:08;6.53;;;2.80;;
65315;SDS011;51920;53.952;10.292;2023-03-14T00:33:38;10.00;;;3.00;;
65315;SDS011;51920;53.952;10.292;2023-03-14T00:36:06;11.90;;;2.85;;
65315;SDS011;51920;53.952;10.292;2023-03-14T00:38:36;9.02;;;3.00;;
65315;SDS011;51920;53.952;10.292;2023-03-14T00:41:05;10.87;;;3.00;;
65315;SDS011;51920;53.952;10.292;2023-03-14T00:43:33;8.70;;;2.90;;
65315;SDS011;51920;53.952;10.292;2023-03-14T00:46:00;9.60;;;3.38;;
65315;SDS011;51920;53.952;10.292;2023-03-14T00:48:27;12.48;;;3.45;;
65315;SDS011;51920;53.952;10.292;2023-03-14T00:50:54;7.85;;;2.80;;
65315;SDS011;51920;53.952;10.292;2023-03-14T00:53:21;11.87;;;2.80;;
65315;SDS011;51920;53.952;10.292;2023-03-14T00:55:48;9.75;;;2.70;;
65315;SDS011;51920;53.952;10.292;2023-03-14T00:58:16;13.32;;;2.83;;
65315;SDS011;51920;53.952;10.292;2023-03-14T01:00:44;9.02;;;2.70;;
65315;SDS011;51920;53.952;10.292;2023-03-14T01:03:12;9.10;;;3.42;;
65315;SDS011;51920;53.952;10.292;2023-03-14T01:05:40;9.13;;;2.87;;
65315;SDS011;51920;53.952;10.292;2023-03-14T01:08:07;9.93;;;2.78;;
65315;SDS011;51920;53.952;10.292;2023-03-14T01:10:37;10.43;;;3.42;;
65315;SDS011;51920;53.952;10.292;2023-03-14T01:13:05;8.93;;;3.10;;
65315;SDS011;51920;53.952;10.292;2023-03-14T01:15:32;11.07;;;2.88;;
65315;SDS011;51920;53.952;10.292;2023-03-14T01:18:00;10.90;;;3.30;;
65315;SDS011;51920;53.952;10.292;2023-03-14T01:20:27;10.23;;;2.80;;
65315;SDS011;51920;53.952;10.292;2023-03-14T01:22:54;8.63;;;3.05;;
65315;SDS011;51920;53.952;10.292;2023-03-14T01:25:21;7.70;;;2.58;;
65315;SDS011;51920;53.952;10.292;2023-03-14T01:27:48;7.65;;;2.90;;
65315;SDS011;51920;53.952;10.292;2023-03-14T01:30:15;8.87;;;2.90;;
65315;SDS011;51920;53.952;10.292;2023-03-14T01:32:42;7.63;;;3.60;;
65315;SDS011;51920;53.952;10.292;2023-03-14T01:35:09;5.95;;;2.58;;
65315;SDS011;51920;53.952;10.292;2023-03-14T01:37:37;9.02;;;3.00;;
65315;SDS011;51920;53.952;10.292;2023-03-14T01:40:06;7.82;;;2.92;;
65315;SDS011;51920;53.952;10.292;2023-03-14T01:42:33;11.30;;;2.70;;
65315;SDS011;51920;53.952;10.292;2023-03-14T01:45:00;8.82;;;2.65;;
65315;SDS011;51920;53.952;10.292;2023-03-14T01:47:28;9.13;;;2.63;;
65315;SDS011;51920;53.952;10.292;2023-03-14T01:50:02;8.75;;;2.83;;
65315;SDS011;51920;53.952;10.292;2023-03-14T01:52:36;9.35;;;3.17;;
65315;SDS011;51920;53.952;10.292;2023-03-14T01:55:12;6.07;;;2.80;;
65315;SDS011;51920;53.952;10.292;2023-03-14T01:57:49;8.85;;;2.55;;
65315;SDS011;51920;53.952;10.292;2023-03-14T02:00:21;10.63;;;3.05;;
65315;SDS011;51920;53.952;10.292;2023-03-14T02:02:50;9.30;;;3.15;;
65315;SDS011;51920;53.952;10.292;2023-03-14T02:05:25;10.90;;;3.30;;
65315;SDS011;51920;53.952;10.292;2023-03-14T02:08:00;8.80;;;2.80;;
65315;SDS011;51920;53.952;10.292;2023-03-14T02:10:41;9.95;;;3.25;;
65315;SDS011;51920;53.952;10.292;2023-03-14T02:13:10;9.38;;;2.97;;
65315;SDS011;51920;53.952;10.292;2023-03-14T02:15:52;8.52;;;2.80;;
65315;SDS011;51920;53.952;10.292;2023-03-14T02:18:38;8.57;;;2.83;;
65315;SDS011;51920;53.952;10.292;2023-03-14T02:24:15;8.10;;;2.72;;
65315;SDS011;51920;53.952;10.292;2023-03-14T02:29:39;11.15;;;2.70;;
65315;SDS011;51920;53.952;10.292;2023-03-14T02:32:12;10.85;;;2.80;;
65315;SDS011;51920;53.952;10.292;2023-03-14T02:34:40;10.07;;;2.53;;
65315;SDS011;51920;53.952;10.292;2023-03-14T02:37:09;12.60;;;2.83;;
65315;SDS011;51920;53.952;10.292;2023-03-14T02:39:38;7.72;;;2.40;;
65315;SDS011;51920;53.952;10.292;2023-03-14T02:42:09;10.40;;;2.80;;
65315;SDS011;51920;53.952;10.292;2023-03-14T02:44:35;7.78;;;2.72;;
65315;SDS011;51920;53.952;10.292;2023-03-14T02:47:03;7.33;;;2.40;;
65315;SDS011;51920;53.952;10.292;2023-03-14T02:49:31;10.55;;;2.70;;
65315;SDS011;51920;53.952;10.292;2023-03-14T02:51:59;10.45;;;2.75;;
65315;SDS011;51920;53.952;10.292;2023-03-14T02:54:26;7.90;;;2.70;;
65315;SDS011;51920;53.952;10.292;2023-03-14T02:56:52;8.77;;;2.88;;
65315;SDS011;51920;53.952;10.292;2023-03-14T02:59:19;4.87;;;2.57;;
65315;SDS011;51920;53.952;10.292;2023-03-14T03:01:54;7.63;;;2.72;;
65315;SDS011;51920;53.952;10.292;2023-03-14T03:04:21;10.40;;;2.88;;
65315;SDS011;51920;53.952;10.292;2023-03-14T03:06:47;10.25;;;3.15;;
65315;SDS011;51920;53.952;10.292;2023-03-14T03:09:15;9.90;;;3.25;;
65315;SDS011;51920;53.952;10.292;2023-03-14T03:11:41;8.20;;;2.60;;
65315;SDS011;51920;53.952;10.292;2023-03-14T03:14:13;6.18;;;2.60;;
65315;SDS011;51920;53.952;10.292;2023-03-14T03:16:40;7.88;;;3.00;;
65315;SDS011;51920;53.952;10.292;2023-03-14T03:19:07;9.52;;;2.67;;
65315;SDS011;51920;53.952;10.292;2023-03-14T03:21:33;9.43;;;3.20;;
65315;SDS011;51920;53.952;10.292;2023-03-14T03:24:01;9.73;;;3.50;;
65315;SDS011;51920;53.952;10.292;2023-03-14T03:26:28;7.63;;;3.50;;
65315;SDS011;51920;53.952;10.292;2023-03-14T03:28:54;7.28;;;3.40;;
65315;SDS011;51920;53.952;10.292;2023-03-14T03:31:22;10.13;;;3.58;;
65315;SDS011;51920;53.952;10.292;2023-03-14T03:33:49;7.38;;;3.50;;
65315;SDS011;51920;53.952;10.292;2023-03-14T03:36:17;8.20;;;3.53;;
65315;SDS011;51920;53.952;10.292;2023-03-14T03:38:48;6.18;;;3.47;;
65315;SDS011;51920;53.952;10.292;2023-03-14T03:41:15;7.47;;;3.92;;
65315;SDS011;51920;53.952;10.292;2023-03-14T03:43:42;6.93;;;3.63;;
65315;SDS011;51920;53.952;10.292;2023-03-14T03:46:10;9.75;;;3.90;;
65315;SDS011;51920;53.952;10.292;2023-03-14T03:48:37;11.00;;;4.30;;
65315;SDS011;51920;53.952;10.292;2023-03-14T03:51:05;7.78;;;3.67;;
65315;SDS011;51920;53.952;10.292;2023-03-14T03:53:32;8.82;;;3.80;;
65315;SDS011;51920;53.952;10.292;2023-03-14T03:56:03;8.23;;;4.07;;
65315;SDS011;51920;53.952;10.292;2023-03-14T03:58:32;11.63;;;4.10;;
65315;SDS011;51920;53.952;10.292;2023-03-14T04:00:59;10.60;;;4.10;;
65315;SDS011;51920;53.952;10.292;2023-03-14T04:03:25;7.63;;;4.50;;
65315;SDS011;51920;53.952;10.292;2023-03-14T04:05:58;9.30;;;4.20;;
65315;SDS011;51920;53.952;10.292;2023-03-14T04:08:31;9.70;;;4.43;;
65315;SDS011;51920;53.952;10.292;2023-03-14T04:10:58;12.63;;;4.95;;
65315;SDS011;51920;53.952;10.292;2023-03-14T04:13:44;14.63;;;4.57;;
65315;SDS011;51920;53.952;10.292;2023-03-14T04:16:15;11.07;;;4.70;;
65315;SDS011;51920;53.952;10.292;2023-03-14T04:18:44;9.10;;;4.70;;
65315;SDS011;51920;53.952;10.292;2023-03-14T04:21:11;8.57;;;4.55;;
65315;SDS011;51920;53.952;10.292;2023-03-14T04:23:51;7.72;;;5.00;;
65315;SDS011;51920;53.952;10.292;2023-03-14T04:26:19;10.13;;;4.90;;
65315;SDS011;51920;53.952;10.292;2023-03-14T04:28:46;11.60;;;4.50;;
65315;SDS011;51920;53.952;10.292;2023-03-14T04:31:20;10.45;;;4.22;;
65315;SDS011;51920;53.952;10.292;2023-03-14T04:33:49;8.10;;;4.32;;
65315;SDS011;51920;53.952;10.292;2023-03-14T04:36:21;7.38;;;4.25;;
65315;SDS011;51920;53.952;10.292;2023-03-14T04:38:48;6.53;;;4.40;;
65315;SDS011;51920;53.952;10.292;2023-03-14T04:41:18;9.70;;;4.22;;
65315;SDS011;51920;53.952;10.292;2023-03-14T04:43:45;9.18;;;4.28;;
65315;SDS011;51920;53.952;10.292;2023-03-14T04:46:12;9.90;;;3.95;;
65315;SDS011;51920;53.952;10.292;2023-03-14T04:48:40;8.20;;;4.13;;
65315;SDS011;51920;53.952;10.292;2023-03-14T04:51:07;10.33;;;4.03;;
65315;SDS011;51920;53.952;10.292;2023-03-14T04:53:34;7.95;;;4.60;;
65315;SDS011;51920;53.952;10.292;2023-03-14T04:56:06;7.72;;;3.58;;
65315;SDS011;51920;53.952;10.292;2023-03-14T04:58:38;4.40;;;2.42;;
65315;SDS011;51920;53.952;10.292;2023-03-14T05:01:05;5.00;;;2.08;;
65315;SDS011;51920;53.952;10.292;2023-03-14T05:03:53;3.40;;;1.70;;
65315;SDS011;51920;53.952;10.292;2023-03-14T05:06:38;2.75;;;1.73;;
65315;SDS011;51920;53.952;10.292;2023-03-14T05:09:28;2.50;;;1.50;;
65315;SDS011;51920;53.952;10.292;2023-03-14T05:12:15;3.00;;;1.40;;
65315;SDS011;51920;53.952;10.292;2023-03-14T05:15:00;4.20;;;1.50;;
65315;SDS011;51920;53.952;10.292;2023-03-14T05:17:39;3.73;;;1.40;;
65315;SDS011;51920;53.952;10.292;2023-03-14T05:20:11;2.92;;;1.48;;
65315;SDS011;51920;53.952;10.292;2023-03-14T05:23:00;3.15;;;1.70;;
65315;SDS011;51920;53.952;10.292;2023-03-14T05:25:55;4.40;;;1.83;;
65315;SDS011;51920;53.952;10.292;2023-03-14T05:28:38;3.83;;;1.80;;
65315;SDS011;51920;53.952;10.292;2023-03-14T05:31:10;3.17;;;1.60;;
65315;SDS011;51920;53.952;10.292;2023-03-14T05:33:45;3.15;;;1.60;;
65315;SDS011;51920;53.952;10.292;2023-03-14T05:36:31;2.35;;;1.90;;
65315;SDS011;51920;53.952;10.292;2023-03-14T05:39:18;5.70;;;1.80;;
65315;SDS011;51920;53.952;10.292;2023-03-14T05:42:16;6.15;;;2.00;;
65315;SDS011;51920;53.952;10.292;2023-03-14T05:45:02;3.13;;;1.60;;
65315;SDS011;51920;53.952;10.292;2023-03-14T05:47:55;4.28;;;2.00;;
65315;SDS011;51920;53.952;10.292;2023-03-14T05:50:33;3.78;;;2.30;;
65315;SDS011;51920;53.952;10.292;2023-03-14T05:53:14;5.63;;;2.20;;
65315;SDS011;51920;53.952;10.292;2023-03-14T05:55:52;5.90;;;2.15;;
65315;SDS011;51920;53.952;10.292;2023-03-14T05:58:33;3.23;;;2.20;;
65315;SDS011;51920;53.952;10.292;2023-03-14T06:01:26;5.88;;;2.40;;
65315;SDS011;51920;53.952;10.292;2023-03-14T06:04:06;4.00;;;2.13;;
65315;SDS011;51920;53.952;10.292;2023-03-14T06:06:33;4.43;;;2.10;;
65315;SDS011;51920;53.952;10.292;2023-03-14T06:09:01;4.63;;;2.50;;
65315;SDS011;51920;53.952;10.292;2023-03-14T06:11:30;5.30;;;2.47;;
65315;SDS011;51920;53.952;10.292;2023-03-14T06:13:57;4.22;;;2.35;;
65315;SDS011;51920;53.952;10.292;2023-03-14T06:16:23;6.65;;;2.45;;
65315;SDS011;51920;53.952;10.292;2023-03-14T06:18:52;6.75;;;2.38;;
65315;SDS011;51920;53.952;10.292;2023-03-14T06:21:21;4.95;;;2.70;;
65315;SDS011;51920;53.952;10.292;2023-03-14T06:23:48;6.30;;;2.87;;
65315;SDS011;51920;53.952;10.292;2023-03-14T06:26:16;4.25;;;2.55;;
65315;SDS011;51920;53.952;10.292;2023-03-14T06:28:42;5.43;;;2.80;;
65315;SDS011;51920;53.952;10.292;2023-03-14T06:31:09;4.82;;;2.60;;
65315;SDS011;51920;53.952;10.292;2023-03-14T06:33:45;5.45;;;2.80;;
65315;SDS011;51920;53.952;10.292;2023-03-14T06:36:12;7.23;;;2.80;;
65315;SDS011;51920;53.952;10.292;2023-03-14T06:38:41;5.70;;;2.90;;
65315;SDS011;51920;53.952;10.292;2023-03-14T06:41:08;6.28;;;2.70;;
65315;SDS011;51920;53.952;10.292;2023-03-14T06:43:41;4.38;;;2.78;;
65315;SDS011;51920;53.952;10.292;2023-03-14T06:46:08;6.38;;;3.22;;
65315;SDS011;51920;53.952;10.292;2023-03-14T06:48:37;5.17;;;2.97;;
65315;SDS011;51920;53.952;10.292;2023-03-14T06:51:05;8.85;;;3.70;;
65315;SDS011;51920;53.952;10.292;2023-03-14T06:53:33;6.32;;;3.60;;
65315;SDS011;51920;53.952;10.292;2023-03-14T06:56:01;6.15;;;3.20;;
65315;SDS011;51920;53.952;10.292;2023-03-14T06:58:30;7.25;;;3.50;;
65315;SDS011;51920;53.952;10.292;2023-03-14T07:00:57;5.33;;;3.20;;
65315;SDS011;51920;53.952;10.292;2023-03-14T07:03:30;5.93;;;3.10;;
65315;SDS011;51920;53.952;10.292;2023-03-14T07:05:58;7.60;;;3.42;;
65315;SDS011;51920;53.952;10.292;2023-03-14T07:08:25;6.55;;;2.90;;
65315;SDS011;51920;53.952;10.292;2023-03-14T07:10:52;6.13;;;2.90;;
65315;SDS011;51920;53.952;10.292;2023-03-14T07:13:23;4.33;;;2.60;;
65315;SDS011;51920;53.952;10.292;2023-03-14T07:15:56;4.90;;;2.58;;
65315;SDS011;51920;53.952;10.292;2023-03-14T07:18:23;5.40;;;2.70;;
65315;SDS011;51920;53.952;10.292;2023-03-14T07:20:49;4.53;;;2.40;;
65315;SDS011;51920;53.952;10.292;2023-03-14T07:23:18;4.80;;;2.40;;
65315;SDS011;51920;53.952;10.292;2023-03-14T07:25:47;5.83;;;2.30;;
65315;SDS011;51920;53.952;10.292;2023-03-14T07:28:16;5.85;;;2.35;;
65315;SDS011;51920;53.952;10.292;2023-03-14T07:30:46;6.35;;;2.80;;
65315;SDS011;51920;53.952;10.292;2023-03-14T07:33:19;8.32;;;2.97;;
65315;SDS011;51920;53.952;10.292;2023-03-14T07:35:47;7.07;;;3.15;;
65315;SDS011;51920;53.952;10.292;2023-03-14T07:38:14;7.70;;;3.20;;
65315;SDS011;51920;53.952;10.292;2023-03-14T07:41:04;6.60;;;3.00;;
65315;SDS011;51920;53.952;10.292;2023-03-14T07:43:35;7.60;;;2.90;;
65315;SDS011;51920;53.952;10.292;2023-03-14T07:46:02;6.22;;;3.38;;
65315;SDS011;51920;53.952;10.292;2023-03-14T07:48:29;6.93;;;3.50;;
65315;SDS011;51920;53.952;10.292;2023-03-14T07:50:56;7.07;;;3.33;;
65315;SDS011;51920;53.952;10.292;2023-03-14T07:53:23;6.85;;;3.70;;
65315;SDS011;51920;53.952;10.292;2023-03-14T07:55:53;6.68;;;3.30;;
65315;SDS011;51920;53.952;10.292;2023-03-14T07:58:21;9.43;;;3.60;;
65315;SDS011;51920;53.952;10.292;2023-03-14T08:00:48;6.95;;;4.00;;
65315;SDS011;51920;53.952;10.292;2023-03-14T08:03:16;9.30;;;3.93;;
65315;SDS011;51920;53.952;10.292;2023-03-14T08:05:43;8.65;;;4.20;;
65315;SDS011;51920;53.952;10.292;2023-03-14T08:08:12;6.43;;;3.83;;
65315;SDS011;51920;53.952;10.292;2023-03-14T08:10:39;9.18;;;4.20;;
65315;SDS011;51920;53.952;10.292;2023-03-14T08:13:06;9.45;;;4.60;;
65315;SDS011;51920;53.952;10.292;2023-03-14T08:15:33;7.87;;;4.40;;
65315;SDS011;51920;53.952;10.292;2023-03-14T08:17:59;9.50;;;4.32;;
65315;SDS011;51920;53.952;10.292;2023-03-14T08:20:27;8.05;;;4.30;;
65315;SDS011;51920;53.952;10.292;2023-03-14T08:22:55;8.68;;;4.13;;
65315;SDS011;51920;53.952;10.292;2023-03-14T08:25:26;7.82;;;4.07;;
65315;SDS011;51920;53.952;10.292;2023-03-14T08:27:54;9.50;;;3.80;;
65315;SDS011;51920;53.952;10.292;2023-03-14T08:30:21;9.65;;;3.92;;
65315;SDS011;51920;53.952;10.292;2023-03-14T08:32:48;7.32;;;3.50;;
65315;SDS011;51920;53.952;10.292;2023-03-14T08:35:15;7.07;;;3.70;;
65315;SDS011;51920;53.952;10.292;2023-03-14T08:37:42;6.75;;;3.53;;
65315;SDS011;51920;53.952;10.292;2023-03-14T08:40:09;7.60;;;3.70;;
65315;SDS011;51920;53.952;10.292;2023-03-14T08:42:38;6.32;;;3.80;;
65315;SDS011;51920;53.952;10.292;2023-03-14T08:45:06;10.27;;;4.10;;
65315;SDS011;51920;53.952;10.292;2023-03-14T08:47:34;8.60;;;3.88;;
65315;SDS011;51920;53.952;10.292;2023-03-14T08:50:02;9.38;;;4.10;;
65315;SDS011;51920;53.952;10.292;2023-03-14T08:52:30;7.13;;;3.90;;
65315;SDS011;51920;53.952;10.292;2023-03-14T08:54:58;7.13;;;4.05;;
65315;SDS011;51920;53.952;10.292;2023-03-14T08:57:26;7.53;;;3.80;;
65315;SDS011;51920;53.952;10.292;2023-03-14T08:59:56;9.48;;;3.97;;
65315;SDS011;51920;53.952;10.292;2023-03-14T09:02:23;7.53;;;3.78;;
65315;SDS011;51920;53.952;10.292;2023-03-14T09:04:51;8.37;;;3.53;;
65315;SDS011;51920;53.952;10.292;2023-03-14T09:07:19;7.53;;;3.70;;
65315;SDS011;51920;53.952;10.292;2023-03-14T09:09:46;8.23;;;3.45;;
65315;SDS011;51920;53.952;10.292;2023-03-14T09:12:13;9.40;;;3.58;;
65315;SDS011;51920;53.952;10.292;2023-03-14T09:14:39;8.70;;;3.35;;
65315;SDS011;51920;53.952;10.292;2023-03-14T09:17:06;8.30;;;3.43;;
65315;SDS011;51920;53.952;10.292;2023-03-14T09:19:33;9.75;;;3.33;;
65315;SDS011;51920;53.952;10.292;2023-03-14T09:22:02;8.35;;;3.63;;
65315;SDS011;51920;53.952;10.292;2023-03-14T09:24:29;9.63;;;3.63;;
65315;SDS011;51920;53.952;10.292;2023-03-14T09:26:56;7.88;;;3.72;;
65315;SDS011;51920;53.952;10.292;2023-03-14T09:29:23;7.23;;;3.20;;
65315;SDS011;51920;53.952;10.292;2023-03-14T09:31:50;8.32;;;3.63;;
65315;SDS011;51920;53.952;10.292;2023-03-14T09:34:18;7.70;;;3.10;;
65315;SDS011;51920;53.952;10.292;2023-03-14T09:36:45;7.70;;;3.25;;
65315;SDS011;51920;53.952;10.292;2023-03-14T09:39:11;8.32;;;3.30;;
65315;SDS011;51920;53.952;10.292;2023-03-14T09:41:43;6.27;;;3.20;;
65315;SDS011;51920;53.952;10.292;2023-03-14T09:44:29;7.45;;;3.30;;
65315;SDS011;51920;53.952;10.292;2023-03-14T09:46:59;7.82;;;3.50;;
65315;SDS011;51920;53.952;10.292;2023-03-14T09:49:30;6.47;;;3.42;;
65315;SDS011;51920;53.952;10.292;2023-03-14T09:52:05;3.70;;;2.15;;
65315;SDS011;51920;53.952;10.292;2023-03-14T09:54:42;2.03;;;1.40;;
65315;SDS011;51920;53.952;10.292;2023-03-14T09:57:14;3.42;;;1.20;;
65315;SDS011;51920;53.952;10.292;2023-03-14T09:59:45;2.92;;;1.55;;
65315;SDS011;51920;53.952;10.292;2023-03-14T10:02:15;2.40;;;1.20;;
65315;SDS011;51920;53.952;10.292;2023-03-14T10:04:48;1.35;;;1.25;;
65315;SDS011;51920;53.952;10.292;2023-03-14T10:07:21;1.60;;;1.30;;
65315;SDS011;51920;53.952;10.292;2023-03-14T10:09:53;1.63;;;1.50;;
65315;SDS011;51920;53.952;10.292;2023-03-14T10:12:21;2.80;;;2.00;;
65315;SDS011;51920;53.952;10.292;2023-03-14T10:14:57;2.72;;;1.75;;
65315;SDS011;51920;53.952;10.292;2023-03-14T10:17:37;3.10;;;1.75;;
65315;SDS011;51920;53.952;10.292;2023-03-14T10:20:05;2.40;;;1.57;;
65315;SDS011;51920;53.952;10.292;2023-03-14T10:22:32;1.50;;;1.40;;
65315;SDS011;51920;53.952;10.292;2023-03-14T10:25:01;2.47;;;1.67;;
65315;SDS011;51920;53.952;10.292;2023-03-14T10:27:34;1.42;;;1.30;;
65315;SDS011;51920;53.952;10.292;2023-03-14T10:30:04;1.70;;;1.30;;
65315;SDS011;51920;53.952;10.292;2023-03-14T10:32:34;2.70;;;1.43;;
65315;SDS011;51920;53.952;10.292;2023-03-14T10:35:04;1.40;;;1.30;;
65315;SDS011;51920;53.952;10.292;2023-03-14T10:37:55;3.35;;;1.70;;
65315;SDS011;51920;53.952;10.292;2023-03-14T10:40:34;2.47;;;1.30;;
65315;SDS011;51920;53.952;10.292;2023-03-14T10:43:06;3.05;;;1.50;;
65315;SDS011;51920;53.952;10.292;2023-03-14T10:45:42;2.67;;;1.47;;
65315;SDS011;51920;53.952;10.292;2023-03-14T10:50:57;2.55;;;1.50;;
65315;SDS011;51920;53.952;10.292;2023-03-14T10:53:41;1.58;;;1.40;;
65315;SDS011;51920;53.952;10.292;2023-03-14T10:56:13;2.22;;;1.70;;
65315;SDS011;51920;53.952;10.292;2023-03-14T10:58:45;2.33;;;1.37;;
65315;SDS011;51920;53.952;10.292;2023-03-14T11:06:42;1.40;;;1.30;;
65315;SDS011;51920;53.952;10.292;2023-03-14T11:09:25;1.60;;;1.40;;
65315;SDS011;51920;53.952;10.292;2023-03-14T11:12:01;1.30;;;1.20;;
65315;SDS011;51920;53.952;10.292;2023-03-14T11:14:43;1.42;;;1.27;;
65315;SDS011;51920;53.952;10.292;2023-03-14T11:17:23;1.63;;;1.50;;
65315;SDS011;51920;53.952;10.292;2023-03-14T11:20:01;3.97;;;1.60;;
65315;SDS011;51920;53.952;10.292;2023-03-14T11:26:12;3.00;;;1.27;;
65315;SDS011;51920;53.952;10.292;2023-03-14T11:28:26;5.78;;;1.33;;
65315;SDS011;51920;53.952;10.292;2023-03-14T11:33:57;2.47;;;1.50;;
65315;SDS011;51920;53.952;10.292;2023-03-14T11:36:29;2.45;;;1.70;;
65315;SDS011;51920;53.952;10.292;2023-03-14T11:39:03;3.40;;;1.63;;
65315;SDS011;51920;53.952;10.292;2023-03-14T11:41:41;4.07;;;1.40;;
65315;SDS011;51920;53.952;10.292;2023-03-14T11:44:17;3.90;;;1.70;;
65315;SDS011;51920;53.952;10.292;2023-03-14T11:46:53;5.93;;;1.70;;
65315;SDS011;51920;53.952;10.292;2023-03-14T11:52:44;3.57;;;1.90;;
65315;SDS011;51920;53.952;10.292;2023-03-14T11:58:33;7.75;;;2.30;;
65315;SDS011;51920;53.952;10.292;2023-03-14T12:00:56;5.65;;;1.70;;
65315;SDS011;51920;53.952;10.292;2023-03-14T12:03:45;5.53;;;1.80;;
65315;SDS011;51920;53.952;10.292;2023-03-14T12:06:24;8.03;;;1.77;;
65315;SDS011;51920;53.952;10.292;2023-03-14T12:09:04;4.82;;;1.52;;
65315;SDS011;51920;53.952;10.292;2023-03-14T12:11:34;7.32;;;2.67;;
65315;SDS011;51920;53.952;10.292;2023-03-14T12:14:29;7.10;;;2.33;;
65315;SDS011;51920;53.952;10.292;2023-03-14T12:16:59;6.40;;;2.10;;
65315;SDS011;51920;53.952;10.292;2023-03-14T12:19:43;9.67;;;2.57;;
65315;SDS011;51920;53.952;10.292;2023-03-14T12:23:01;9.88;;;2.00;;
65315;SDS011;51920;53.952;10.292;2023-03-14T12:27:47;5.43;;;1.65;;
65315;SDS011;51920;53.952;10.292;2023-03-14T12:35:44;5.18;;;2.00;;
65315;SDS011;51920;53.952;10.292;2023-03-14T12:41:23;6.15;;;2.22;;
65315;SDS011;51920;53.952;10.292;2023-03-14T12:43:54;7.38;;;2.35;;
65315;SDS011;51920;53.952;10.292;2023-03-14T12:46:22;8.30;;;2.20;;
65315;SDS011;51920;53.952;10.292;2023-03-14T12:51:38;7.47;;;1.92;;
65315;SDS011;51920;53.952;10.292;2023-03-14T13:00:00;11.00;;;1.87;;
65315;SDS011;51920;53.952;10.292;2023-03-14T13:02:42;7.32;;;2.20;;
65315;SDS011;51920;53.952;10.292;2023-03-14T13:05:11;10.50;;;2.70;;
65315;SDS011;51920;53.952;10.292;2023-03-14T13:10:23;5.88;;;1.95;;
65315;SDS011;51920;53.952;10.292;2023-03-14T13:12:54;10.80;;;2.37;;
65315;SDS011;51920;53.952;10.292;2023-03-14T13:18:28;11.90;;;2.20;;
65315;SDS011;51920;53.952;10.292;2023-03-14T13:21:01;12.15;;;2.80;;
65315;SDS011;51920;53.952;10.292;2023-03-14T13:24:03;11.50;;;2.42;;
65315;SDS011;51920;53.952;10.292;2023-03-14T13:26:36;14.13;;;3.40;;
65315;SDS011;51920;53.952;10.292;2023-03-14T13:29:25;12.27;;;2.78;;
65315;SDS011;51920;53.952;10.292;2023-03-14T13:31:54;11.68;;;2.30;;
65315;SDS011;51920;53.952;10.292;2023-03-14T13:34:28;8.48;;;2.72;;
65315;SDS011;51920;53.952;10.292;2023-03-14T13:36:56;11.95;;;2.60;;
65315;SDS011;51920;53.952;10.292;2023-03-14T13:39:24;8.57;;;2.23;;
65315;SDS011;51920;53.952;10.292;2023-03-14T13:41:52;9.57;;;1.77;;
65315;SDS011;51920;53.952;10.292;2023-03-14T13:44:36;6.88;;;1.75;;
65315;SDS011;51920;53.952;10.292;2023-03-14T13:47:06;9.63;;;1.88;;
65315;SDS011;51920;53.952;10.292;2023-03-14T13:49:40;5.20;;;2.00;;
65315;SDS011;51920;53.952;10.292;2023-03-14T13:54:57;6.75;;;1.80;;
65315;SDS011;51920;53.952;10.292;2023-03-14T13:57:26;8.43;;;1.70;;
65315;SDS011;51920;53.952;10.292;2023-03-14T14:00:04;5.72;;;1.60;;
65315;SDS011;51920;53.952;10.292;2023-03-14T14:02:33;7.53;;;1.60;;
65315;SDS011;51920;53.952;10.292;2023-03-14T14:05:02;7.47;;;1.87;;
65315;SDS011;51920;53.952;10.292;2023-03-14T14:07:30;5.10;;;1.98;;
65315;SDS011;51920;53.952;10.292;2023-03-14T14:09:57;7.38;;;2.35;;
65315;SDS011;51920;53.952;10.292;2023-03-14T14:12:27;6.70;;;1.70;;
65315;SDS011;51920;53.952;10.292;2023-03-14T14:19:59;4.47;;;1.65;;
65315;SDS011;51920;53.952;10.292;2023-03-14T14:22:27;3.38;;;1.70;;
65315;SDS011;51920;53.952;10.292;2023-03-14T14:24:54;4.80;;;1.70;;
65315;SDS011;51920;53.952;10.292;2023-03-14T14:27:28;6.57;;;2.10;;
65315;SDS011;51920;53.952;10.292;2023-03-14T14:30:05;4.83;;;1.63;;
65315;SDS011;51920;53.952;10.292;2023-03-14T14:32:39;6.47;;;1.55;;
65315;SDS011;51920;53.952;10.292;2023-03-14T14:35:08;5.72;;;1.73;;
65315;SDS011;51920;53.952;10.292;2023-03-14T14:37:43;6.32;;;1.63;;
65315;SDS011;51920;53.952;10.292;2023-03-14T14:40:16;7.07;;;1.80;;
65315;SDS011;51920;53.952;10.292;2023-03-14T14:42:46;6.53;;;1.70;;
65315;SDS011;51920;53.952;10.292;2023-03-14T14:45:14;7.40;;;1.80;;
65315;SDS011;51920;53.952;10.292;2023-03-14T14:47:51;5.20;;;2.03;;
65315;SDS011;51920;53.952;10.292;2023-03-14T14:50:27;5.43;;;1.90;;
65315;SDS011;51920;53.952;10.292;2023-03-14T14:52:57;5.50;;;2.58;;
65315;SDS011;51920;53.952;10.292;2023-03-14T14:55:34;8.30;;;2.30;;
65315;SDS011;51920;53.952;10.292;2023-03-14T14:58:20;4.90;;;2.58;;
65315;SDS011;51920;53.952;10.292;2023-03-14T15:00:55;3.85;;;2.10;;
65315;SDS011;51920;53.952;10.292;2023-03-14T15:03:28;7.03;;;2.40;;
65315;SDS011;51920;53.952;10.292;2023-03-14T15:05:57;3.70;;;2.33;;
65315;SDS011;51920;53.952;10.292;2023-03-14T15:08:25;7.73;;;1.63;;
65315;SDS011;51920;53.952;10.292;2023-03-14T15:10:53;5.35;;;1.80;;
65315;SDS011;51920;53.952;10.292;2023-03-14T15:13:20;3.25;;;1.60;;
65315;SDS011;51920;53.952;10.292;2023-03-14T15:15:47;4.32;;;1.60;;
65315;SDS011;51920;53.952;10.292;2023-03-14T15:18:17;4.70;;;1.95;;
65315;SDS011;51920;53.952;10.292;2023-03-14T15:20:44;6.20;;;2.20;;
65315;SDS011;51920;53.952;10.292;2023-03-14T15:23:15;4.05;;;2.08;;
65315;SDS011;51920;53.952;10.292;2023-03-14T15:25:44;8.48;;;2.08;;
65315;SDS011;51920;53.952;10.292;2023-03-14T15:28:22;6.53;;;1.90;;
65315;SDS011;51920;53.952;10.292;2023-03-14T15:30:54;5.85;;;1.92;;
65315;SDS011;51920;53.952;10.292;2023-03-14T15:33:25;5.60;;;2.00;;
65315;SDS011;51920;53.952;10.292;2023-03-14T15:35:52;5.93;;;2.05;;
65315;SDS011;51920;53.952;10.292;2023-03-14T15:38:20;5.50;;;2.10;;
65315;SDS011;51920;53.952;10.292;2023-03-14T15:40:49;10.30;;;2.20;;
65315;SDS011;51920;53.952;10.292;2023-03-14T15:43:17;7.50;;;2.25;;
65315;SDS011;51920;53.952;10.292;2023-03-14T15:45:44;8.33;;;2.10;;
65315;SDS011;51920;53.952;10.292;2023-03-14T15:48:13;7.22;;;2.00;;
65315;SDS011;51920;53.952;10.292;2023-03-14T15:50:44;4.82;;;2.00;;
65315;SDS011;51920;53.952;10.292;2023-03-14T15:53:11;7.38;;;2.20;;
65315;SDS011;51920;53.952;10.292;2023-03-14T15:55:38;8.05;;;2.42;;
65315;SDS011;51920;53.952;10.292;2023-03-14T15:58:05;7.17;;;2.13;;